Time;durP1;ratioP1;P1;durP2;ratioP2;P2;SDS_P1;SDS_P2;PMS_P1;PMS_P2;Temp;Humidity;BMP_temperature;BMP_pressure;BME280_temperature;BME280_humidity;BME280_pressure;Samples;Min_cycle;Max_cycle;Signal;HPM_P1;HPM_P2
2021/10/20 00:01:15;;;;;;;11.35;7.28;;;;;;;18.15;67.66;100985.88;4910344;28;20626;-69
2021/10/20 00:03:41;;;;;;;16.00;7.43;;;;;;;18.14;67.57;100974.47;4941396;28;20097;-70
2021/10/20 00:06:06;;;;;;;11.65;7.65;;;;;;;18.07;67.86;100978.09;4935533;28;20440;-70
2021/10/20 00:08:31;;;;;;;11.38;8.18;;;;;;;18.01;67.60;100986.09;4936421;28;20077;-70
2021/10/20 00:10:57;;;;;;;19.70;7.95;;;;;;;18.06;67.67;100978.09;4922368;28;20540;-69
2021/10/20 00:13:22;;;;;;;12.73;8.00;;;;;;;18.08;67.51;100965.75;4934239;28;20042;-69
2021/10/20 00:15:48;;;;;;;11.30;7.68;;;;;;;18.04;67.85;100964.97;4934728;28;20035;-70
2021/10/20 00:18:14;;;;;;;11.63;7.85;;;;;;;17.99;67.65;100945.66;4934080;28;20645;-70
2021/10/20 00:20:39;;;;;;;12.20;8.13;;;;;;;18.07;67.15;100948.19;4924614;28;20130;-69
2021/10/20 00:23:05;;;;;;;13.68;8.05;;;;;;;18.06;67.26;100947.31;4930845;28;20181;-69
2021/10/20 00:25:30;;;;;;;10.10;7.82;;;;;;;18.07;67.41;100948.19;4937233;28;20128;-70
2021/10/20 00:27:56;;;;;;;12.88;7.90;;;;;;;17.94;67.53;100939.59;4925412;28;20038;-68
2021/10/20 00:30:22;;;;;;;12.07;7.90;;;;;;;18.01;67.29;100943.00;4912216;28;20101;-70
2021/10/20 00:32:50;;;;;;;11.02;7.90;;;;;;;18.05;66.97;100934.16;4931752;28;20051;-71
2021/10/20 00:35:15;;;;;;;13.23;8.10;;;;;;;17.85;67.95;100937.13;4920301;28;20056;-70
2021/10/20 00:37:40;;;;;;;12.30;8.60;;;;;;;17.83;67.72;100918.66;4931201;28;20055;-69
2021/10/20 00:40:07;;;;;;;15.13;8.55;;;;;;;17.97;67.00;100921.09;4931264;28;20063;-69
2021/10/20 00:42:33;;;;;;;14.98;9.25;;;;;;;17.94;66.93;100918.50;4930683;28;20045;-69
2021/10/20 00:45:00;;;;;;;14.20;8.73;;;;;;;17.90;67.06;100918.56;4908475;28;20130;-69
2021/10/20 00:47:26;;;;;;;13.38;9.00;;;;;;;17.94;66.98;100920.25;4935290;28;20626;-70
2021/10/20 00:49:52;;;;;;;13.07;9.05;;;;;;;17.95;66.59;100920.25;4941720;28;20122;-70
2021/10/20 00:52:18;;;;;;;11.85;8.20;;;;;;;17.99;66.34;100921.09;4932488;28;20134;-71
2021/10/20 00:54:44;;;;;;;12.82;8.80;;;;;;;17.95;66.67;100927.28;4935987;28;20485;-70
2021/10/20 00:57:11;;;;;;;15.25;8.75;;;;;;;18.02;66.25;100921.00;4918069;28;20485;-70
2021/10/20 00:59:40;;;;;;;18.15;10.07;;;;;;;17.99;66.17;100915.81;4932430;28;20046;-69
2021/10/20 01:02:07;;;;;;;24.25;12.18;;;;;;;17.95;66.46;100904.41;4941081;28;20039;-70
2021/10/20 01:04:32;;;;;;;24.60;12.48;;;;;;;18.02;66.03;100913.09;4928144;28;20472;-69
2021/10/20 01:06:58;;;;;;;24.52;12.80;;;;;;;18.04;65.91;100901.63;4925617;28;20585;-70
2021/10/20 01:09:24;;;;;;;28.58;13.95;;;;;;;18.03;65.91;100891.09;4931917;28;20094;-70
2021/10/20 01:11:49;;;;;;;31.45;14.73;;;;;;;18.06;65.67;100891.03;4943173;28;20416;-70
2021/10/20 01:14:15;;;;;;;32.00;14.73;;;;;;;18.04;65.63;100885.81;4934982;28;20391;-69
2021/10/20 01:16:42;;;;;;;30.42;15.40;;;;;;;17.99;65.70;100887.63;4932725;28;20057;-70
2021/10/20 01:19:08;;;;;;;31.23;15.05;;;;;;;18.06;65.47;100898.94;4911435;28;20365;-69
2021/10/20 01:21:34;;;;;;;36.75;15.85;;;;;;;18.00;65.80;100891.13;4914837;28;20038;-69
2021/10/20 01:24:00;;;;;;;39.33;15.60;;;;;;;18.01;65.65;100899.03;4929107;28;20031;-70
2021/10/20 01:26:26;;;;;;;32.80;15.38;;;;;;;17.96;65.83;100897.38;4930093;28;20045;-69
2021/10/20 01:28:51;;;;;;;26.88;14.23;;;;;;;17.85;66.32;100876.47;4932394;28;20193;-70
2021/10/20 01:31:17;;;;;;;24.27;13.70;;;;;;;17.89;65.90;100880.78;4934409;28;20051;-70
2021/10/20 01:33:43;;;;;;;27.05;13.98;;;;;;;17.87;66.03;100885.19;4917327;28;20042;-70
2021/10/20 01:36:08;;;;;;;24.55;13.15;;;;;;;17.86;65.70;100870.28;4930651;28;20043;-71
2021/10/20 01:38:34;;;;;;;24.33;12.48;;;;;;;17.88;65.39;100875.50;4931863;28;20104;-69
2021/10/20 01:40:59;;;;;;;19.42;11.73;;;;;;;17.89;65.69;100879.91;4923352;28;20067;-70
2021/10/20 01:43:44;;;;;;;19.92;12.02;;;;;;;17.93;64.90;100879.81;4926993;28;20591;-69
2021/10/20 01:46:09;;;;;;;;;;;;;;;17.94;65.43;100878.94;4935470;28;20094;-69
2021/10/20 01:48:35;;;;;;;20.02;11.25;;;;;;;17.95;65.05;100878.03;4926521;28;19921;-69
2021/10/20 01:51:00;;;;;;;21.65;11.20;;;;;;;17.94;65.15;100875.41;4901753;28;20352;-69
2021/10/20 01:53:26;;;;;;;22.73;11.82;;;;;;;17.84;65.37;100856.25;4931749;28;20034;-69
2021/10/20 01:55:51;;;;;;;19.17;11.27;;;;;;;17.88;65.71;100852.66;4931787;28;20042;-69
2021/10/20 01:58:17;;;;;;;25.20;11.60;;;;;;;17.80;65.61;100846.66;4932846;28;20663;-69
2021/10/20 02:00:43;;;;;;;22.55;11.32;;;;;;;17.81;65.43;100840.47;4937737;28;20122;-69
2021/10/20 02:03:08;;;;;;;21.02;11.82;;;;;;;17.75;65.67;100838.78;4930034;28;21013;-69
2021/10/20 02:05:33;;;;;;;22.38;11.35;;;;;;;17.81;65.25;100828.16;4939507;28;20045;-70
2021/10/20 02:07:59;;;;;;;19.70;11.73;;;;;;;17.78;65.33;100825.56;4926625;28;20300;-69
2021/10/20 02:10:24;;;;;;;18.25;11.32;;;;;;;17.83;65.16;100821.09;4929642;28;20221;-69
2021/10/20 02:12:50;;;;;;;17.77;10.93;;;;;;;17.84;65.01;100816.69;4925762;28;20120;-72
2021/10/20 02:15:15;;;;;;;18.02;11.38;;;;;;;17.90;64.31;100819.22;4924660;28;20051;-69
2021/10/20 02:17:40;;;;;;;20.20;11.10;;;;;;;17.87;64.11;100805.22;4910767;28;20043;-70
2021/10/20 02:20:15;;;;;;;18.15;11.38;;;;;;;17.84;64.96;100820.19;4905628;28;20038;-69
2021/10/20 02:22:42;;;;;;;17.60;11.25;;;;;;;17.97;64.09;100812.94;4947165;28;20499;-69
2021/10/20 02:25:08;;;;;;;19.23;11.70;;;;;;;17.89;64.15;100812.19;4928891;28;20297;-70
2021/10/20 02:27:34;;;;;;;22.35;11.85;;;;;;;17.95;64.06;100803.31;4925583;28;20055;-69
2021/10/20 02:29:59;;;;;;;17.70;11.65;;;;;;;17.91;63.70;100796.34;4916977;28;20736;-69
2021/10/20 02:32:25;;;;;;;19.00;10.95;;;;;;;17.87;64.57;100792.03;4906619;28;20035;-69
2021/10/20 02:34:51;;;;;;;19.70;11.15;;;;;;;17.88;64.07;100793.75;4909516;28;20034;-70
2021/10/20 02:37:17;;;;;;;15.95;11.15;;;;;;;17.88;63.94;100785.84;4903962;28;20501;-70
2021/10/20 02:39:42;;;;;;;18.75;11.27;;;;;;;17.76;64.28;100790.44;4915456;28;20054;-69
2021/10/20 02:42:08;;;;;;;17.25;11.75;;;;;;;17.81;64.09;100782.44;4911153;28;20035;-70
2021/10/20 02:44:33;;;;;;;22.90;10.95;;;;;;;17.81;63.61;100780.69;4912018;28;21007;-72
2021/10/20 02:46:59;;;;;;;20.58;10.98;;;;;;;17.92;63.54;100774.38;4901161;28;20093;-71
2021/10/20 02:49:24;;;;;;;19.25;11.20;;;;;;;17.94;63.50;100768.16;4907074;28;20070;-69
2021/10/20 02:51:50;;;;;;;17.25;11.30;;;;;;;17.95;63.22;100767.25;4919036;28;20051;-67
2021/10/20 02:54:15;;;;;;;17.58;11.30;;;;;;;17.96;63.58;100766.34;4909194;28;20043;-69
2021/10/20 02:56:41;;;;;;;19.48;11.93;;;;;;;17.88;63.42;100756.84;4914668;28;20043;-69
2021/10/20 02:59:06;;;;;;;23.15;11.32;;;;;;;17.87;63.47;100752.50;4906074;28;20383;-70
2021/10/20 03:01:32;;;;;;;19.73;11.32;;;;;;;17.84;63.66;100746.34;4912728;28;20087;-70
2021/10/20 03:03:57;;;;;;;17.52;11.38;;;;;;;17.96;62.80;100741.75;4904465;28;20043;-70
2021/10/20 03:06:22;;;;;;;19.40;11.75;;;;;;;17.95;63.17;100740.88;4899841;28;20046;-68
2021/10/20 03:08:49;;;;;;;17.38;11.20;;;;;;;17.95;62.80;100754.06;4916498;28;20075;-69
2021/10/20 03:11:15;;;;;;;19.88;11.40;;;;;;;17.93;63.17;100740.03;4898635;28;20047;-69
2021/10/20 03:13:40;;;;;;;22.13;12.73;;;;;;;17.88;63.01;100736.59;4906113;28;20042;-70
2021/10/20 03:16:06;;;;;;;22.92;12.25;;;;;;;17.96;62.85;100728.56;4911227;28;20039;-69
2021/10/20 03:18:33;;;;;;;20.92;12.35;;;;;;;17.95;63.33;100734.72;4912825;28;20534;-68
2021/10/20 03:20:59;;;;;;;19.58;11.38;;;;;;;17.97;62.92;100731.19;4896648;28;20039;-69
2021/10/20 03:23:24;;;;;;;23.80;12.63;;;;;;;17.91;63.05;100727.78;4912461;28;20097;-69
2021/10/20 03:25:50;;;;;;;20.92;12.13;;;;;;;18.01;62.73;100726.69;4908018;28;20161;-69
2021/10/20 03:28:16;;;;;;;22.25;12.50;;;;;;;18.05;62.28;100729.25;4920421;28;20459;-69
2021/10/20 03:30:41;;;;;;;25.10;13.85;;;;;;;18.00;61.87;100731.09;4926570;28;20046;-71
2021/10/20 03:33:07;;;;;;;18.38;12.20;;;;;;;18.15;61.87;100728.19;4900999;28;20035;-70
2021/10/20 03:35:32;;;;;;;21.05;12.90;;;;;;;17.93;62.86;100729.47;4909816;28;20051;-69
2021/10/20 03:37:57;;;;;;;22.35;13.10;;;;;;;18.02;62.62;100720.53;4926805;28;20108;-69
2021/10/20 03:40:23;;;;;;;21.25;12.15;;;;;;;17.97;62.83;100720.63;4927798;28;20046;-70
2021/10/20 03:42:50;;;;;;;21.90;12.68;;;;;;;18.06;62.00;100714.28;4931118;28;20410;-69
2021/10/20 03:45:15;;;;;;;19.30;12.68;;;;;;;18.03;62.71;100709.09;4911990;28;20101;-70
2021/10/20 03:47:41;;;;;;;20.92;12.30;;;;;;;18.07;62.32;100703.72;4913164;28;20039;-71
2021/10/20 03:50:07;;;;;;;20.65;12.20;;;;;;;18.10;62.06;100695.75;4935962;28;20651;-71
2021/10/20 03:52:32;;;;;;;18.30;11.95;;;;;;;18.11;62.19;100713.28;4918299;28;20499;-71
2021/10/20 03:54:58;;;;;;;18.15;11.63;;;;;;;18.01;62.78;100700.31;4925868;28;20042;-71
2021/10/20 03:57:23;;;;;;;18.05;12.25;;;;;;;18.01;62.95;100695.03;4912532;28;20591;-70
2021/10/20 03:59:48;;;;;;;17.70;11.60;;;;;;;18.12;62.77;100690.41;4922576;28;20316;-70
2021/10/20 04:02:15;;;;;;;17.15;11.82;;;;;;;18.15;62.54;100685.09;4933658;28;20039;-68
2021/10/20 04:04:40;;;;;;;21.75;12.20;;;;;;;18.18;62.65;100682.38;4928056;28;20051;-71
2021/10/20 04:07:06;;;;;;;18.52;11.80;;;;;;;18.26;62.42;100677.81;4921191;28;20031;-70
2021/10/20 04:09:32;;;;;;;17.83;11.32;;;;;;;18.27;62.37;100678.69;4916721;28;20436;-69
2021/10/20 04:11:58;;;;;;;18.23;11.13;;;;;;;18.08;63.43;100672.91;4930848;28;20542;-69
2021/10/20 04:14:23;;;;;;;18.98;11.05;;;;;;;18.26;63.10;100667.25;4929263;28;20058;-69
2021/10/20 04:16:49;;;;;;;17.42;11.45;;;;;;;18.22;62.70;100670.88;4924929;28;20054;-68
2021/10/20 04:19:15;;;;;;;17.27;10.90;;;;;;;18.35;61.84;100664.44;4932016;28;20200;-69
2021/10/20 04:21:40;;;;;;;17.60;10.98;;;;;;;18.42;62.24;100662.53;4924104;28;20128;-69
2021/10/20 04:24:05;;;;;;;18.45;11.52;;;;;;;18.33;62.60;100649.53;4936512;28;20058;-69
2021/10/20 04:26:31;;;;;;;16.30;10.80;;;;;;;18.45;61.86;100651.88;4928800;28;20038;-69
2021/10/20 04:28:56;;;;;;;19.55;11.18;;;;;;;18.47;62.25;100658.88;4919448;28;20049;-70
2021/10/20 04:31:21;;;;;;;19.38;11.32;;;;;;;18.37;63.00;100646.78;4929984;28;20504;-70
2021/10/20 04:33:47;;;;;;;19.02;11.93;;;;;;;18.25;65.13;100655.84;4937146;28;20057;-71
2021/10/20 04:36:12;;;;;;;21.88;11.60;;;;;;;18.34;65.38;100661.81;4928202;28;20077;-70
2021/10/20 04:38:37;;;;;;;21.65;12.52;;;;;;;18.13;66.92;100666.66;4934959;28;20036;-69
2021/10/20 04:41:03;;;;;;;19.02;12.40;;;;;;;17.96;67.70;100652.94;4927974;28;20109;-69
2021/10/20 04:43:28;;;;;;;24.60;12.77;;;;;;;17.96;68.22;100659.97;4929187;28;20347;-69
2021/10/20 04:45:54;;;;;;;21.27;12.32;;;;;;;17.84;69.05;100661.09;4913392;28;20205;-70
2021/10/20 04:48:20;;;;;;;23.38;13.02;;;;;;;17.68;70.06;100671.09;4925941;28;20313;-68
2021/10/20 04:50:45;;;;;;;22.95;12.90;;;;;;;17.47;71.49;100673.19;4933506;28;20567;-69
2021/10/20 04:53:11;;;;;;;23.00;13.02;;;;;;;17.37;71.84;100668.09;4922210;28;20278;-69
2021/10/20 04:55:36;;;;;;;20.40;12.82;;;;;;;17.39;72.21;100670.69;4930062;28;20157;-68
2021/10/20 04:58:07;;;;;;;22.35;12.88;;;;;;;17.35;72.04;100669.00;4942464;28;20042;-69
2021/10/20 05:00:33;;;;;;;21.08;12.65;;;;;;;17.29;72.49;100650.69;4926678;28;20058;-69
2021/10/20 05:02:59;;;;;;;21.88;13.27;;;;;;;17.25;72.89;100654.28;4926067;28;20549;-68
2021/10/20 05:05:24;;;;;;;21.90;13.27;;;;;;;17.26;72.86;100662.13;4923668;28;20368;-69
2021/10/20 05:07:51;;;;;;;25.48;13.48;;;;;;;17.14;73.14;100651.78;4927857;28;21053;-68
2021/10/20 05:10:20;;;;;;;23.75;13.48;;;;;;;17.11;73.52;100651.00;4936263;28;20042;-69
2021/10/20 05:12:46;;;;;;;22.17;13.55;;;;;;;17.18;73.35;100648.25;4934324;28;20054;-69
2021/10/20 05:15:12;;;;;;;25.48;14.02;;;;;;;17.28;73.00;100638.41;4919503;28;20038;-68
2021/10/20 05:17:39;;;;;;;21.95;13.73;;;;;;;17.23;73.27;100622.69;4921929;28;20051;-69
2021/10/20 05:20:09;;;;;;;24.75;13.10;;;;;;;17.25;72.88;100626.16;4912782;28;20161;-68
2021/10/20 05:22:38;;;;;;;22.00;13.40;;;;;;;17.25;72.88;100623.53;4929029;28;20042;-68
2021/10/20 05:25:06;;;;;;;21.63;12.95;;;;;;;17.24;73.07;100611.25;4918163;28;22389;-68
2021/10/20 05:27:31;;;;;;;22.90;12.68;;;;;;;17.30;72.92;100611.13;4934655;28;20046;-68
2021/10/20 05:29:57;;;;;;;21.77;12.68;;;;;;;17.29;72.60;100601.47;4927256;28;20039;-68
2021/10/20 05:32:24;;;;;;;20.90;12.25;;;;;;;17.40;72.12;100590.75;4935026;28;20295;-69
2021/10/20 05:34:51;;;;;;;22.92;12.63;;;;;;;17.40;71.45;100588.09;4925808;28;20043;-70
2021/10/20 05:37:16;;;;;;;20.42;11.95;;;;;;;17.44;71.70;100595.91;4928980;28;20081;-68
2021/10/20 05:39:41;;;;;;;20.13;11.60;;;;;;;17.41;72.11;100597.75;4926841;28;20129;-70
2021/10/20 05:42:07;;;;;;;18.63;11.70;;;;;;;17.51;71.50;100583.50;4928793;28;20038;-71
2021/10/20 05:44:32;;;;;;;20.35;11.77;;;;;;;17.54;71.57;100572.03;4927681;28;20334;-68
2021/10/20 05:46:57;;;;;;;20.48;11.43;;;;;;;17.40;72.89;100551.22;4920177;28;20531;-68
2021/10/20 05:49:23;;;;;;;18.15;11.63;;;;;;;17.48;72.53;100535.25;4916592;28;20090;-68
2021/10/20 05:51:48;;;;;;;19.98;12.32;;;;;;;17.48;72.59;100537.88;4927652;28;21481;-70
2021/10/20 05:54:13;;;;;;;22.45;11.68;;;;;;;17.47;72.53;100555.47;4926686;28;20035;-69
2021/10/20 05:56:39;;;;;;;17.95;10.80;;;;;;;17.51;72.70;100556.25;4922355;28;20678;-69
2021/10/20 05:59:04;;;;;;;19.50;11.55;;;;;;;17.34;73.16;100536.38;4918564;28;20055;-69
2021/10/20 06:01:31;;;;;;;19.73;11.38;;;;;;;17.52;72.61;100529.88;4931258;28;20066;-68
2021/10/20 06:03:57;;;;;;;19.52;11.43;;;;;;;17.40;73.34;100532.75;4928296;28;20049;-69
2021/10/20 06:06:23;;;;;;;17.73;11.20;;;;;;;17.38;73.81;100516.13;4918763;28;20126;-70
2021/10/20 06:08:50;;;;;;;18.20;11.30;;;;;;;17.54;73.20;100530.72;4920705;28;20489;-69
2021/10/20 06:11:17;;;;;;;20.38;11.15;;;;;;;17.71;72.18;100522.50;4927564;28;20526;-69
2021/10/20 06:13:42;;;;;;;18.10;11.32;;;;;;;17.80;72.02;100517.91;4935683;28;20054;-69
2021/10/20 06:16:08;;;;;;;18.40;11.20;;;;;;;17.66;72.78;100511.19;4911637;28;20039;-68
2021/10/20 06:18:33;;;;;;;19.23;10.93;;;;;;;17.78;72.09;100503.00;4933674;28;20047;-68
2021/10/20 06:20:59;;;;;;;16.85;9.93;;;;;;;17.84;70.90;100506.38;4903916;28;20510;-69
2021/10/20 06:23:24;;;;;;;14.23;9.80;;;;;;;17.72;71.31;100503.13;4934185;28;20113;-70
2021/10/20 06:25:49;;;;;;;15.77;9.40;;;;;;;17.84;70.37;100519.56;4929001;28;20245;-69
2021/10/20 06:28:14;;;;;;;14.40;9.60;;;;;;;17.87;70.29;100526.53;4931305;28;20093;-69
2021/10/20 06:30:40;;;;;;;14.20;9.05;;;;;;;17.84;70.58;100506.38;4935074;28;20043;-69
2021/10/20 06:33:05;;;;;;;12.52;8.93;;;;;;;17.88;70.06;100509.81;4914184;28;20030;-70
2021/10/20 06:35:30;;;;;;;16.83;8.93;;;;;;;17.75;71.03;100516.25;4911613;28;20589;-70
2021/10/20 06:37:56;;;;;;;17.08;9.23;;;;;;;17.71;71.70;100507.53;4923980;28;20161;-69
2021/10/20 06:40:22;;;;;;;15.60;9.77;;;;;;;17.60;72.32;100527.09;4930884;28;20125;-68
2021/10/20 06:42:50;;;;;;;15.70;9.30;;;;;;;17.50;72.31;100515.00;4928657;28;20591;-67
2021/10/20 06:45:15;;;;;;;15.10;8.70;;;;;;;17.50;72.73;100507.97;4907509;28;20046;-69
2021/10/20 06:47:40;;;;;;;17.02;9.40;;;;;;;17.43;73.28;100509.00;4905598;28;20061;-68
2021/10/20 06:50:06;;;;;;;16.35;9.15;;;;;;;17.31;73.86;100485.53;4930350;28;20069;-69
2021/10/20 06:52:31;;;;;;;17.50;9.48;;;;;;;17.17;74.66;100477.91;4927317;28;20047;-68
2021/10/20 06:54:57;;;;;;;18.77;10.00;;;;;;;17.23;74.19;100461.09;4912851;28;20038;-68
2021/10/20 06:57:23;;;;;;;15.05;9.50;;;;;;;17.09;75.06;100442.94;4925217;28;20065;-69
2021/10/20 06:59:48;;;;;;;17.00;8.85;;;;;;;17.23;74.37;100453.19;4932320;28;20073;-68
2021/10/20 07:02:13;;;;;;;15.65;9.38;;;;;;;17.17;74.79;100434.88;4942346;28;20630;-68
2021/10/20 07:04:39;;;;;;;15.00;8.75;;;;;;;17.07;75.18;100436.84;4930763;28;20177;-69
2021/10/20 07:07:06;;;;;;;13.57;9.23;;;;;;;17.01;75.71;100405.38;4908106;28;20180;-69
2021/10/20 07:09:31;;;;;;;18.15;9.88;;;;;;;17.08;75.51;100395.56;4934702;28;20054;-69
2021/10/20 07:11:58;;;;;;;15.63;9.85;;;;;;;17.11;75.48;100377.94;4927475;28;20039;-69
2021/10/20 07:14:23;;;;;;;14.93;9.73;;;;;;;17.09;75.32;100379.72;4921431;28;20066;-68
2021/10/20 07:16:52;;;;;;;15.93;9.30;;;;;;;17.04;75.21;100361.38;4930675;28;20598;-69
2021/10/20 07:19:17;;;;;;;19.08;10.00;;;;;;;17.10;75.15;100357.75;4901889;28;20469;-69
2021/10/20 07:21:43;;;;;;;16.95;9.70;;;;;;;17.13;75.01;100347.16;4937959;28;20137;-69
2021/10/20 07:24:09;;;;;;;14.77;9.40;;;;;;;17.12;75.13;100345.44;4934061;28;20381;-69
2021/10/20 07:26:34;;;;;;;15.35;9.63;;;;;;;17.15;74.92;100349.75;4939612;28;20050;-69
2021/10/20 07:29:00;;;;;;;15.57;9.35;;;;;;;17.16;74.92;100362.03;4930980;28;20294;-68
2021/10/20 07:31:29;;;;;;;17.08;10.23;;;;;;;17.06;75.74;100371.03;4918104;28;20212;-69
2021/10/20 07:33:57;;;;;;;15.63;9.50;;;;;;;17.01;75.74;100365.88;4902289;28;20055;-68
2021/10/20 07:36:23;;;;;;;14.38;9.10;;;;;;;16.99;75.77;100355.34;4928374;28;20468;-68
2021/10/20 07:38:50;;;;;;;16.63;9.50;;;;;;;17.00;75.72;100367.63;4925761;28;20205;-68
2021/10/20 07:41:16;;;;;;;14.35;9.48;;;;;;;17.03;75.96;100359.66;4927579;28;21021;-68
2021/10/20 07:43:41;;;;;;;16.25;9.23;;;;;;;17.09;75.71;100368.31;4922979;28;20405;-69
2021/10/20 07:46:06;;;;;;;17.27;8.98;;;;;;;17.12;75.68;100373.53;4928172;28;20045;-69
2021/10/20 07:48:32;;;;;;;15.13;9.02;;;;;;;17.08;75.95;100356.06;4930358;28;20059;-68
2021/10/20 07:50:57;;;;;;;12.73;8.60;;;;;;;17.22;75.18;100361.88;4909711;28;20035;-68
2021/10/20 07:53:22;;;;;;;13.63;8.55;;;;;;;17.38;74.84;100368.56;4910877;28;20110;-68
2021/10/20 07:55:48;;;;;;;12.25;7.47;;;;;;;17.49;74.29;100369.19;4917421;28;20539;-68
2021/10/20 07:58:13;;;;;;;14.70;8.55;;;;;;;17.56;73.94;100391.88;4932169;28;20042;-69
2021/10/20 08:00:39;;;;;;;13.75;7.75;;;;;;;17.64;73.55;100386.44;4925666;28;20081;-68
2021/10/20 08:03:04;;;;;;;12.85;8.30;;;;;;;17.61;73.46;100395.31;4919976;28;20488;-68
2021/10/20 08:05:29;;;;;;;12.48;8.30;;;;;;;17.66;73.81;100395.19;4921083;28;20723;-69
2021/10/20 08:07:58;;;;;;;10.55;7.75;;;;;;;17.93;72.87;100398.94;4929856;28;20067;-70
2021/10/20 08:10:26;;;;;;;10.40;7.75;;;;;;;17.70;73.56;100383.66;4927084;28;20544;-71
2021/10/20 08:12:53;;;;;;;12.07;7.95;;;;;;;17.71;74.05;100386.25;4924565;28;20049;-69
2021/10/20 08:15:19;;;;;;;12.27;8.10;;;;;;;17.66;73.30;100384.63;4929477;28;20093;-68
2021/10/20 08:17:46;;;;;;;11.88;8.15;;;;;;;17.89;72.83;100376.19;4915100;28;20555;-70
2021/10/20 08:20:14;;;;;;;12.95;7.90;;;;;;;17.88;72.99;100382.34;4931190;28;20050;-69
2021/10/20 08:22:40;;;;;;;15.52;8.50;;;;;;;17.68;73.80;100367.91;4929179;28;20389;-68
2021/10/20 08:25:09;;;;;;;12.43;7.85;;;;;;;17.82;73.13;100375.44;4909134;28;20054;-67
2021/10/20 08:27:34;;;;;;;12.73;8.20;;;;;;;18.09;72.22;100376.56;4935332;28;20058;-69
2021/10/20 08:30:00;;;;;;;12.07;7.93;;;;;;;18.10;72.44;100365.97;4925474;28;20104;-69
2021/10/20 08:32:25;;;;;;;13.40;8.27;;;;;;;18.37;71.51;100371.41;4927747;28;20163;-69
2021/10/20 08:34:52;;;;;;;13.05;8.10;;;;;;;18.35;71.37;100363.56;4928505;28;20077;-69
2021/10/20 08:37:17;;;;;;;12.95;8.45;;;;;;;18.60;71.32;100361.16;4907205;28;20137;-69
2021/10/20 08:39:44;;;;;;;16.30;8.43;;;;;;;18.57;71.19;100348.91;4935229;28;20121;-70
2021/10/20 08:42:10;;;;;;;12.63;8.25;;;;;;;18.79;70.58;100343.00;4931080;28;20105;-69
2021/10/20 08:44:35;;;;;;;15.43;8.07;;;;;;;19.04;69.70;100344.03;4925614;28;20050;-69
2021/10/20 08:47:02;;;;;;;14.40;8.98;;;;;;;19.12;69.04;100327.94;4929154;28;20042;-69
2021/10/20 08:49:29;;;;;;;10.85;8.05;;;;;;;19.35;68.55;100349.25;4932195;28;20166;-70
2021/10/20 08:51:54;;;;;;;14.00;8.52;;;;;;;19.59;68.26;100348.53;4929620;28;20100;-72
2021/10/20 08:54:21;;;;;;;12.98;8.35;;;;;;;19.66;67.39;100347.41;4901478;28;20034;-69
2021/10/20 08:56:46;;;;;;;13.82;8.23;;;;;;;19.68;67.74;100365.88;4932946;28;20558;-69
2021/10/20 08:59:12;;;;;;;12.98;8.57;;;;;;;19.54;67.75;100350.44;4924266;28;20461;-69
2021/10/20 09:01:38;;;;;;;12.52;8.45;;;;;;;19.68;66.50;100326.22;4932251;28;20109;-71
2021/10/20 09:04:07;;;;;;;14.07;8.90;;;;;;;19.50;68.06;100340.91;4932876;28;20031;-68
2021/10/20 09:06:33;;;;;;;15.90;8.77;;;;;;;19.20;68.62;100333.88;4924658;28;20206;-70
2021/10/20 09:09:02;;;;;;;14.65;9.27;;;;;;;19.26;69.12;100326.63;4912314;28;20066;-70
2021/10/20 09:11:32;;;;;;;14.27;8.32;;;;;;;19.37;67.88;100328.94;4931988;28;20140;-70
2021/10/20 09:14:06;;;;;;;15.98;8.82;;;;;;;19.47;67.50;100327.75;4912606;28;20428;-70
2021/10/20 09:16:33;;;;;;;14.60;8.82;;;;;;;19.57;67.34;100320.41;4902358;28;20146;-71
2021/10/20 09:19:01;;;;;;;15.98;8.60;;;;;;;19.70;67.20;100297.94;4924250;28;20059;-70
2021/10/20 09:21:27;;;;;;;12.52;8.32;;;;;;;19.56;67.36;100310.75;4930370;28;20081;-69
2021/10/20 09:23:53;;;;;;;12.35;8.52;;;;;;;19.41;68.09;100299.69;4938342;28;20228;-69
2021/10/20 09:26:19;;;;;;;12.90;7.93;;;;;;;19.74;66.60;100313.66;4923166;28;20105;-70
2021/10/20 09:28:45;;;;;;;13.50;7.78;;;;;;;19.76;66.07;100306.50;4927641;28;20061;-69
2021/10/20 09:31:11;;;;;;;12.68;7.95;;;;;;;19.67;66.66;100300.69;4919922;28;20547;-71
2021/10/20 09:33:38;;;;;;;9.88;7.28;;;;;;;19.67;66.39;100308.63;4925395;28;20034;-70
2021/10/20 09:36:13;;;;;;;12.65;7.63;;;;;;;19.69;66.63;100318.25;4921644;28;20412;-72
2021/10/20 09:38:45;;;;;;;11.43;7.55;;;;;;;19.67;66.44;100321.84;4941509;28;20038;-70
2021/10/20 09:41:11;;;;;;;10.70;7.82;;;;;;;19.74;66.37;100321.59;4922350;28;20510;-70
2021/10/20 09:43:52;;;;;;;12.05;7.35;;;;;;;19.46;68.21;100315.44;4935204;28;20046;-71
2021/10/20 09:46:36;;;;;;;9.32;7.30;;;;;;;19.50;67.29;100300.38;4912126;28;20051;-71
2021/10/20 09:49:04;;;;;;;12.50;7.80;;;;;;;19.50;67.42;100298.59;4929129;28;20092;-70
2021/10/20 09:51:38;;;;;;;11.10;7.75;;;;;;;19.70;66.64;100308.53;4922693;28;20310;-70
2021/10/20 09:54:27;;;;;;;9.25;7.40;;;;;;;19.81;66.29;100319.63;4931715;28;20242;-70
2021/10/20 09:56:58;;;;;;;12.75;7.50;;;;;;;19.39;67.88;100317.38;4918747;28;20094;-71
2021/10/20 09:59:24;;;;;;;10.85;7.72;;;;;;;19.74;66.94;100303.06;4929071;28;20374;-70
2021/10/20 10:01:50;;;;;;;14.43;7.68;;;;;;;19.93;65.99;100303.31;4933106;28;20410;-70
2021/10/20 10:04:16;;;;;;;12.75;7.60;;;;;;;20.06;65.91;100309.06;4927405;28;20546;-70
2021/10/20 10:06:43;;;;;;;10.85;7.13;;;;;;;20.07;65.38;100300.19;4934193;28;20039;-70
2021/10/20 10:09:09;;;;;;;12.50;7.70;;;;;;;20.23;65.24;100293.47;4909012;28;20137;-70
2021/10/20 10:11:37;;;;;;;9.77;7.07;;;;;;;20.39;64.79;100299.09;4933106;28;20042;-70
2021/10/20 10:14:03;;;;;;;13.18;7.40;;;;;;;20.17;65.01;100306.91;4927500;28;20497;-70
2021/10/20 10:16:31;;;;;;;10.55;7.18;;;;;;;20.39;64.43;100312.34;4923812;28;20035;-70
2021/10/20 10:18:58;;;;;;;11.48;7.18;;;;;;;20.35;64.39;100305.44;4924761;28;20073;-67
2021/10/20 10:21:45;;;;;;;12.73;7.45;;;;;;;20.40;64.31;100316.72;4920487;28;20069;-70
2021/10/20 10:24:13;;;;;;;9.52;6.50;;;;;;;20.46;64.31;100319.13;4914125;28;20240;-71
2021/10/20 10:27:04;;;;;;;16.00;7.47;;;;;;;20.63;63.99;100319.38;4919711;28;22176;-70
2021/10/20 10:29:31;;;;;;;11.85;6.90;;;;;;;20.52;65.04;100305.69;4905138;28;20291;-70
2021/10/20 10:32:01;;;;;;;12.63;6.60;;;;;;;20.83;64.14;100295.69;4921258;28;20505;-70
2021/10/20 10:34:40;;;;;;;12.85;6.97;;;;;;;20.76;63.54;100310.06;4908437;28;20102;-70
2021/10/20 10:37:05;;;;;;;13.98;6.78;;;;;;;20.68;63.56;100309.47;4908428;28;20055;-69
2021/10/20 10:39:31;;;;;;;13.23;7.53;;;;;;;20.27;64.95;100295.06;4904290;28;20106;-70
2021/10/20 10:42:06;;;;;;;13.32;6.60;;;;;;;20.35;64.34;100310.72;4904781;28;20585;-70
2021/10/20 10:44:43;;;;;;;11.65;6.57;;;;;;;20.25;64.46;100295.13;4904275;28;20046;-70
2021/10/20 10:47:20;;;;;;;15.60;6.88;;;;;;;20.06;66.15;100311.72;4909200;28;21060;-70
2021/10/20 10:49:54;;;;;;;11.43;6.60;;;;;;;19.95;65.97;100309.41;4901709;28;21026;-70
2021/10/20 10:52:33;;;;;;;12.77;6.57;;;;;;;19.84;66.22;100306.28;4905077;28;20516;-71
2021/10/20 10:55:06;;;;;;;14.05;7.05;;;;;;;19.74;66.55;100307.50;4897027;28;20051;-70
2021/10/20 10:58:18;;;;;;;15.93;6.30;;;;;;;19.75;66.63;100303.94;4905409;28;20575;-69
2021/10/20 11:00:55;;;;;;;12.65;6.60;;;;;;;19.83;66.24;100288.66;4909132;28;20114;-70
2021/10/20 11:03:23;;;;;;;11.65;6.63;;;;;;;19.87;66.06;100303.53;4901493;28;20337;-70
2021/10/20 11:05:54;;;;;;;13.32;6.30;;;;;;;19.81;66.06;100291.38;4898777;28;20039;-70
2021/10/20 11:08:20;;;;;;;11.43;6.18;;;;;;;19.93;65.82;100298.03;4899102;28;20051;-69
2021/10/20 11:10:47;;;;;;;11.18;6.03;;;;;;;20.06;65.23;100294.06;4910979;28;20669;-70
2021/10/20 11:13:13;;;;;;;9.80;5.65;;;;;;;19.89;65.97;100308.75;4897806;28;20047;-69